Data for 03/15/2016

Time Sea-Level Adjusted Pressure Absolute Pressure Temperature Relative Humidity Dew Point   
(mb) (inHg) (mb) (inHg) (C) (F) (%) (C) (F)
00:05 1014 29.94 843 24.89 -1.9 28.6 65 -7.6 18.3
00:10 1014 29.94 843 24.89 -1.9 28.6 66 -7.4 18.8
00:15 1013 29.91 843 24.89 -2.1 28.3 68 -7.2 19
00:20 1013 29.91 843 24.89 -2.3 27.9 67 -7.5 18.4
00:25 1013 29.91 843 24.89 -2.2 28.1 68 -7.4 18.7
00:30 1013 29.91 843 24.89 -2.2 28.1 62 -8.4 16.9
00:35 1013 29.91 843 24.89 -2 28.4 65 -7.8 18
00:40 1014 29.94 843 24.89 -1.9 28.5 66 -7.5 18.4
00:45 1014 29.94 843 24.89 -2 28.4 68 -7.2 19.1
00:50 1014 29.94 843 24.89 -2 28.4 63 -8.1 17.5
00:55 1014 29.94 843 24.89 -1.8 28.7 62 -8.2 17.2
01:00 1014 29.94 843 24.89 -1.7 28.9 59 -8.6 16.5
01:05 1014 29.94 843 24.89 -1.6 29 59 -8.7 16.3
01:10 1014 29.94 843 24.89 -1.6 29.1 53 -10 13.9
01:15 1014 29.94 843 24.89 -1.1 30 49 -10.4 13.3
01:20 1014 29.94 843 24.89 -0.8 30.6 47 -10.7 12.7
01:25 1014 29.94 843 24.89 -0.8 30.6 49 -10.1 13.8
01:30 1014 29.94 843 24.89 -0.8 30.5 49 -10.3 13.4
01:35 1014 29.94 843 24.89 -0.8 30.5 46 -10.9 12.3
01:40 1014 29.94 843 24.89 -0.8 30.5 47 -10.8 12.5
01:45 1014 29.94 843 24.89 -0.9 30.4 49 -10.2 13.6
01:50 1014 29.94 843 24.89 -1 30.2 50 -10.1 13.8
01:55 1014 29.94 843 24.89 -1.1 30.1 50 -10.2 13.6
02:00 1014 29.94 843 24.89 -1.2 29.9 50 -10.3 13.4
02:05 1014 29.94 843 24.89 -1.2 29.8 49 -10.7 12.7
02:10 1014 29.94 843 24.89 -1.4 29.5 51 -10.4 13.3
02:15 1014 29.94 843 24.89 -1.5 29.3 49 -11 12.3
02:20 1014 29.94 843 24.89 -1.5 29.3 49 -11 12.2
02:25 1014 29.94 843 24.89 -1.6 29.2 48 -11.2 11.9
02:30 1014 29.94 843 24.89 -1.6 29.2 49 -11 12.1
02:35 1014 29.94 843 24.89 -1.6 29.1 49 -11.1 12
02:40 1014 29.94 843 24.89 -1.6 29.2 49 -11 12.2
02:45 1014 29.94 843 24.89 -1.6 29.2 49 -11.1 12.1
02:50 1014 29.94 843 24.89 -1.6 29.2 48 -11.3 11.7
02:55 1014 29.94 843 24.89 -1.5 29.3 46 -11.7 10.9
03:00 1014 29.94 843 24.89 -1.5 29.3 46 -11.6 11.1
03:05 1014 29.94 843 24.89 -1.5 29.3 48 -11.2 11.8
03:10 1014 29.94 843 24.89 -1.7 29 49 -11 12.2
03:15 1014 29.94 843 24.89 -1.8 28.8 49 -11.2 11.9
03:20 1014 29.94 843 24.89 -1.7 28.9 49 -11.1 12
03:25 1014 29.94 843 24.89 -1.8 28.8 49 -11.1 12
03:30 1014 29.94 843 24.89 -1.9 28.6 50 -11 12.2
03:35 1014 29.94 843 24.89 -2 28.5 51 -10.7 12.7
03:40 1014 29.94 843 24.89 -1.9 28.5 50 -11 12.1
03:45 1014 29.94 843 24.89 -1.8 28.7 51 -10.6 12.8
03:50 1014 29.94 843 24.89 -2.1 28.3 54 -10.2 13.6
03:55 1014 29.94 843 24.89 -2.2 28.1 55 -10 14.1
04:00 1014 29.94 843 24.89 -2.3 27.8 57 -9.8 14.4
04:05 1014 29.94 843 24.89 -2.4 27.7 57 -9.8 14.4
04:10 1014 29.94 844 24.92 -2.4 27.7 58 -9.6 14.6
04:15 1014 29.94 844 24.92 -2.5 27.5 57 -9.8 14.4
04:20 1014 29.94 844 24.92 -2.5 27.6 58 -9.5 14.8
04:25 1015 29.97 844 24.92 -2.4 27.7 58 -9.6 14.7
04:30 1015 29.97 844 24.92 -2.5 27.5 59 -9.4 15
04:35 1015 29.97 844 24.92 -2.5 27.5 58 -9.6 14.7
04:40 1015 29.97 844 24.92 -2.5 27.6 57 -9.9 14.1
04:45 1015 29.97 844 24.92 -2.4 27.8 55 -10.1 13.7
04:50 1015 29.97 844 24.92 -2.3 27.8 56 -9.8 14.3
04:55 1015 29.97 844 24.92 -2.3 27.8 54 -10.4 13.3
05:00 1015 29.97 844 24.92 -2.2 28 54 -10.3 13.5
05:05 1015 29.97 844 24.92 -2.2 28.1 51 -11.1 12
05:10 1015 29.97 844 24.92 -1.8 28.8 47 -11.6 11.1
05:15 1015 29.97 844 24.92 -1.6 29 47 -11.6 11
05:20 1015 29.97 844 24.92 -1.6 29.1 47 -11.4 11.4
05:25 1015 29.97 844 24.92 -1.6 29.1 47 -11.7 11
05:30 1015 29.97 844 24.92 -1.6 29.1 48 -11.2 11.8
05:35 1015 29.97 844 24.92 -1.7 29 49 -11 12.2
05:40 1015 29.97 844 24.92 -1.7 28.9 50 -11 12.2
05:45 1015 29.97 844 24.92 -1.9 28.6 50 -10.9 12.3
05:50 1015 29.97 844 24.92 -1.9 28.6 50 -11.1 12
05:55 1015 29.97 844 24.92 -1.8 28.7 48 -11.4 11.6
06:00 1015 29.97 844 24.92 -1.8 28.8 49 -11.1 12
06:05 1015 29.97 844 24.92 -1.8 28.8 49 -11.2 11.8
06:10 1015 29.97 844 24.92 -1.7 28.9 49 -11.2 11.9
06:15 1015 29.97 844 24.92 -1.7 28.9 48 -11.2 11.8
06:20 1015 29.97 844 24.92 -1.7 28.9 49 -11.2 11.9
06:25 1015 29.97 844 24.92 -1.7 28.9 48 -11.4 11.6
06:30 1015 29.97 844 24.92 -1.7 28.9 50 -10.9 12.4
06:35 1015 29.97 844 24.92 -1.7 28.9 50 -10.9 12.5
06:40 1015 29.97 844 24.92 -1.8 28.8 50 -10.8 12.6
06:45 1015 29.97 844 24.92 -1.8 28.7 50 -10.9 12.4
06:50 1015 29.97 844 24.92 -1.8 28.8 49 -11 12.1
06:55 1015 29.97 844 24.92 -1.7 28.9 48 -11.4 11.5
07:00 1015 29.97 844 24.92 -1.7 29 49 -11 12.2
07:05 1015 29.97 844 24.92 -1.8 28.8 50 -10.9 12.5
07:10 1015 29.97 844 24.92 -1.8 28.8 51 -10.7 12.8
07:15 1015 29.97 844 24.92 -1.8 28.8 50 -10.8 12.5
07:20 1015 29.97 844 24.92 -1.8 28.8 50 -10.9 12.4
07:25 1015 29.97 844 24.92 -1.8 28.8 52 -10.5 13.1
07:30 1015 29.97 844 24.92 -1.8 28.8 49 -11 12.1
07:35 1015 29.97 844 24.92 -1.6 29.1 48 -11.2 11.8
07:40 1015 29.97 844 24.92 -1.5 29.3 47 -11.4 11.5
07:45 1015 29.97 844 24.92 -1.4 29.5 48 -11.1 12
07:50 1015 29.97 844 24.92 -1.3 29.6 47 -11.3 11.6
07:55 1015 29.97 844 24.92 -1.3 29.7 46 -11.5 11.3
08:00 1015 29.97 844 24.92 -1.3 29.7 45 -11.7 11
08:05 1015 29.97 844 24.92 -1.3 29.7 46 -11.6 11.2
08:10 1015 29.97 844 24.92 -1.2 29.8 46 -11.4 11.4
08:15 1015 29.97 844 24.92 -1.1 30 46 -11.4 11.4
08:20 1015 29.97 844 24.92 -1.1 30 45 -11.5 11.2
08:25 1015 29.97 844 24.92 -1 30.1 46 -11.4 11.5
08:30 1015 29.97 844 24.92 -0.9 30.3 45 -11.5 11.4
08:35 1015 29.97 845 24.95 -0.9 30.4 46 -11 12.2
08:40 1015 29.97 845 24.95 -0.8 30.5 47 -10.6 12.8
08:45 1015 29.97 845 24.95 -0.8 30.6 47 -10.6 12.9
08:50 1016 30 845 24.95 -0.7 30.7 48 -10.5 13.1
08:55 1016 30 845 24.95 -0.7 30.7 46 -11 12.3
09:00 1016 30 845 24.95 -0.7 30.7 48 -10.6 13
09:05 1016 30 845 24.95 -0.6 30.8 47 -10.6 12.9
09:10 1016 30 845 24.95 -0.6 30.9 46 -10.8 12.5
09:15 1016 30 845 24.95 -0.5 31.1 45 -10.9 12.3
09:20 1016 30 845 24.95 -0.4 31.3 46 -10.8 12.6
09:25 1016 30 845 24.95 -0.4 31.3 45 -11 12.2
09:30 1016 30 845 24.95 -0.3 31.4 45 -10.8 12.6
09:35 1016 30 845 24.95 -0.2 31.6 43 -11.4 11.5
09:40 1016 30 845 24.95 -0.1 31.8 42 -11.6 11
09:45 1016 30 845 24.95 -0 31.9 41 -11.8 10.8
09:50 1016 30 845 24.95 -0.1 31.9 42 -11.4 11.4
09:55 1016 30 845 24.95 -0 31.9 42 -11.4 11.5
10:00 1016 30 845 24.95 -0 32 43 -11.3 11.7
10:05 1016 30 845 24.95 0.1 32.1 40 -12.1 10.2
10:10 1016 30 845 24.95 0.2 32.3 41 -11.6 11.2
10:15 1016 30 845 24.95 0.3 32.6 42 -11.2 11.8
10:20 1016 30 845 24.95 0.5 32.9 42 -11.1 12
10:25 1016 30 845 24.95 0.6 33 35 -13.2 8.2
10:30 1016 30 845 24.95 0.8 33.4 34 -13.4 7.9
10:35 1016 30 845 24.95 0.9 33.7 34 -13.3 8
10:40 1016 30 845 24.95 1.1 34 32 -13.7 7.3
10:45 1016 30 845 24.95 1.2 34.2 32 -13.7 7.4
10:50 1016 30 845 24.95 1.1 33.9 37 -12.1 10.3
10:55 1016 30 845 24.95 1 33.7 35 -12.8 9
11:00 1016 30 845 24.95 0.9 33.6 40 -11.4 11.5
11:05 1016 30 845 24.95 0.8 33.4 40 -11.3 11.6
11:10 1016 30 845 24.95 0.7 33.2 44 -10.2 13.6
11:15 1016 30 845 24.95 0.3 32.5 54 -7.9 17.8
11:20 1016 30 845 24.95 -0.3 31.4 60 -7.2 19
11:25 1016 30 845 24.95 -1 30.2 64 -7 19.4
11:30 1016 30 845 24.95 -1.4 29.4 64 -7.5 18.5
11:35 1016 30 845 24.95 -1.6 29.1 63 -7.7 18.2
11:40 1016 30 845 24.95 -1.7 29 62 -8 17.7
11:45 1016 30 845 24.95 -1.6 29.1 63 -7.8 18
11:50 1016 30 845 24.95 -1.4 29.5 64 -7.4 18.7
11:55 1016 30 845 24.95 -1.4 29.5 63 -7.5 18.6
12:00 1016 30 845 24.95 -1.4 29.4 62 -7.7 18.1
12:05 1016 30 845 24.95 -1.6 29 69 -6.7 20
12:10 1016 30 845 24.95 -1.9 28.6 71 -6.4 20.4
12:15 1016 30 845 24.95 -1.9 28.6 71 -6.4 20.5
12:20 1016 30 845 24.95 -1.7 29 67 -7 19.4
12:25 1016 30 845 24.95 -1.5 29.3 71 -6.1 21
12:30 1016 30 845 24.95 -1.5 29.4 69 -6.4 20.5
12:35 1016 30 845 24.95 -1.3 29.6 66 -6.8 19.7
12:40 1016 30 845 24.95 -1.1 29.9 65 -7 19.5
12:45 1016 30 845 24.95 -0.7 30.7 62 -7.2 19
12:50 1016 30 845 24.95 -0.7 30.8 62 -7.2 19.1
12:55 1016 30 845 24.95 -0.9 30.4 62 -7.4 18.7
13:00 1016 30 845 24.95 -1.3 29.6 66 -6.8 19.7
13:05 1016 30 845 24.95 -1 30.1 60 -7.8 17.9
13:10 1016 30 845 24.95 -0.6 30.9 59 -7.7 18.2
13:15 1016 30 845 24.95 -0.1 31.8 56 -7.9 17.8
13:20 1016 30 845 24.95 0 32.1 57 -7.6 18.3
13:25 1016 30 845 24.95 0.1 32.2 58 -7.1 19.2
13:30 1016 30 845 24.95 -0.2 31.7 59 -7.2 19.1
13:35 1016 30 845 24.95 -0.3 31.4 57 -7.9 17.8
13:40 1016 30 845 24.95 -0.3 31.4 60 -7.2 19
13:45 1016 30 845 24.95 -0.2 31.7 57 -7.8 18
13:50 1016 30 845 24.95 -0 31.9 55 -8 17.6
13:55 1016 30 845 24.95 -0.1 31.7 58 -7.4 18.6
14:00 1016 30 845 24.95 -0.2 31.7 54 -8.4 16.9
14:05 1015 29.97 845 24.95 -0.4 31.4 56 -8.2 17.3
14:10 1016 30 845 24.95 -0.1 31.8 56 -7.8 18
14:15 1015 29.97 845 24.95 0.4 32.7 60 -6.4 20.5
14:20 1015 29.97 845 24.95 0.6 33 59 -6.5 20.2
14:25 1015 29.97 845 24.95 0.2 32.4 60 -6.6 20.1
14:30 1015 29.97 845 24.95 0.3 32.5 56 -7.5 18.6
14:35 1015 29.97 845 24.95 0.4 32.6 56 -7.3 18.8
14:40 1015 29.97 845 24.95 0.5 32.8 54 -7.8 18
14:45 1015 29.97 845 24.95 0.7 33.3 51 -8.3 17.1
14:50 1015 29.97 845 24.95 1 33.8 51 -8 17.5
14:55 1015 29.97 845 24.95 1 33.8 50 -8.3 17
15:00 1015 29.97 845 24.95 0.8 33.5 53 -7.7 18.2
15:05 1015 29.97 845 24.95 0.7 33.3 51 -8.4 16.9
15:10 1015 29.97 844 24.92 0.8 33.4 52 -8.1 17.4
15:15 1015 29.97 844 24.92 0.8 33.4 49 -8.6 16.5
15:20 1015 29.97 845 24.95 0.8 33.4 52 -8 17.6
15:25 1015 29.97 845 24.95 1.1 33.9 41 -10.7 12.7
15:30 1015 29.97 845 24.95 1.3 34.3 41 -10.5 13.1
15:35 1016 30 845 24.95 1.2 34.2 45 -9.5 15
15:40 1016 30 845 24.95 0.8 33.4 47 -9.2 15.5
15:45 1016 30 845 24.95 0.8 33.4 49 -8.7 16.3
15:50 1016 30 845 24.95 0.8 33.4 48 -9 15.8
15:55 1016 30 845 24.95 0.9 33.6 44 -10.1 13.9
16:00 1016 30 845 24.95 1.1 33.9 44 -10 14
16:05 1016 30 845 24.95 1.2 34.1 43 -10.2 13.6
16:10 1016 30 845 24.95 1.3 34.3 44 -9.6 14.7
16:15 1016 30 845 24.95 1.2 34.2 48 -8.7 16.3
16:20 1016 30 845 24.95 1.1 33.9 47 -9 15.8
16:25 1016 30 845 24.95 1.1 33.9 46 -9.3 15.3
16:30 1016 30 845 24.95 1 33.9 47 -9 15.8
16:35 1016 30 845 24.95 1 33.9 49 -8.6 16.6
16:40 1016 30 845 24.95 0.8 33.5 51 -8.3 17.1
16:45 1016 30 845 24.95 0.4 32.7 51 -8.7 16.3
16:50 1016 30 846 24.98 -0.1 31.8 52 -8.8 16.1
16:55 1016 30 846 24.98 -0.3 31.5 52 -8.9 16
17:00 1016 30 846 24.98 -0.3 31.5 54 -8.5 16.6
17:05 1017 30.03 846 24.98 -0.2 31.7 52 -8.8 16.1
17:10 1017 30.03 846 24.98 -0.2 31.7 55 -8.1 17.4
17:15 1016 30 846 24.98 -0.4 31.2 60 -7.3 18.8
17:20 1016 30 846 24.98 -0.5 31 60 -7.4 18.8
17:25 1016 30 846 24.98 -0.4 31.3 57 -7.8 17.9
17:30 1016 30 846 24.98 -0.3 31.5 57 -7.7 18.1
17:35 1017 30.03 846 24.98 -0.3 31.5 58 -7.6 18.3
17:40 1017 30.03 846 24.98 -0.3 31.5 58 -7.6 18.3
17:45 1017 30.03 846 24.98 -0.3 31.4 57 -7.8 18
17:50 1017 30.03 846 24.98 -0.4 31.3 56 -8.1 17.4
17:55 1017 30.03 846 24.98 -0.3 31.4 53 -8.7 16.4
18:00 1017 30.03 846 24.98 -0.3 31.5 52 -9 15.8
18:05 1017 30.03 846 24.98 -0.2 31.6 55 -8.2 17.3
18:10 1017 30.03 846 24.98 -0.5 31.1 58 -7.9 17.8
18:15 1017 30.03 846 24.98 -0.6 30.8 55 -8.7 16.3
18:20 1017 30.03 846 24.98 -0.5 31 55 -8.4 16.8
18:25 1017 30.03 846 24.98 -0.5 31.1 57 -8 17.5
18:30 1017 30.03 846 24.98 -0.6 30.9 58 -7.9 17.8
18:35 1017 30.03 846 24.98 -0.7 30.7 59 -7.8 17.9
18:40 1017 30.03 846 24.98 -0.8 30.6 56 -8.5 16.8
18:45 1017 30.03 846 24.98 -0.9 30.4 58 -8.2 17.2
18:50 1017 30.03 846 24.98 -0.9 30.3 58 -8.1 17.4
18:55 1017 30.03 846 24.98 -1 30.1 61 -7.7 18.2
19:00 1017 30.03 846 24.98 -1.2 29.9 62 -7.5 18.4
19:05 1017 30.03 846 24.98 -1.2 29.8 64 -7.1 19.2
19:10 1017 30.03 846 24.98 -1.2 29.8 65 -7 19.4
19:15 1017 30.03 846 24.98 -1.1 30 61 -7.7 18.2
19:20 1017 30.03 846 24.98 -1.1 30 62 -7.4 18.7
19:25 1017 30.03 846 24.98 -1.3 29.7 62 -7.6 18.3
19:30 1017 30.03 846 24.98 -1.3 29.7 65 -7.1 19.2
19:35 1017 30.03 846 24.98 -1.3 29.6 66 -6.9 19.6
19:40 1017 30.03 846 24.98 -1.4 29.5 65 -7.2 19.1
19:45 1017 30.03 846 24.98 -1.5 29.4 63 -7.6 18.3
19:50 1017 30.03 846 24.98 -1.4 29.5 63 -7.4 18.6
19:55 1017 30.03 846 24.98 -1.3 29.6 64 -7.3 18.8
20:00 1017 30.03 846 24.98 -1.3 29.6 64 -7.4 18.8
20:05 1017 30.03 846 24.98 -1.3 29.6 60 -8.2 17.3
20:10 1017 30.03 846 24.98 -1.3 29.6 57 -8.7 16.4
20:15 1017 30.03 846 24.98 -1.4 29.5 59 -8.4 16.8
20:20 1017 30.03 846 24.98 -1.5 29.3 59 -8.5 16.8
20:25 1017 30.03 846 24.98 -1.5 29.2 60 -8.4 16.8
20:30 1017 30.03 846 24.98 -1.6 29.1 60 -8.5 16.7
20:35 1017 30.03 847 25.01 -1.7 29 59 -8.6 16.5
20:40 1017 30.03 847 25.01 -1.6 29 59 -8.6 16.4
20:45 1017 30.03 847 25.01 -1.7 29 59 -8.7 16.3
20:50 1017 30.03 847 25.01 -1.7 28.9 58 -8.9 15.9
20:55 1017 30.03 847 25.01 -1.7 28.9 58 -8.9 16
21:00 1017 30.03 847 25.01 -1.7 28.9 59 -8.8 16.2
21:05 1018 30.06 847 25.01 -1.7 28.9 58 -8.9 16
21:10 1018 30.06 847 25.01 -1.7 29 56 -9.3 15.3
21:15 1018 30.06 847 25.01 -1.6 29.1 57 -9.1 15.6
21:20 1018 30.06 847 25.01 -1.6 29.1 56 -9.3 15.3
21:25 1018 30.06 847 25.01 -1.5 29.2 55 -9.5 14.9
21:30 1018 30.06 847 25.01 -1.4 29.5 54 -9.5 14.8
21:35 1018 30.06 847 25.01 -1.4 29.5 54 -9.6 14.7
21:40 1018 30.06 847 25.01 -1.4 29.4 52 -10.1 13.9
21:45 1018 30.06 847 25.01 -1.4 29.5 52 -10 14
21:50 1018 30.06 847 25.01 -1.4 29.5 51 -10.1 13.8
21:55 1018 30.06 847 25.01 -1.4 29.6 51 -10.2 13.6
22:00 1018 30.06 847 25.01 -1.4 29.4 52 -10.1 13.9
22:05 1018 30.06 847 25.01 -1.5 29.2 52 -10.3 13.5
22:10 1018 30.06 847 25.01 -1.6 29.1 52 -10.2 13.6
22:15 1018 30.06 847 25.01 -1.6 29.1 52 -10.3 13.5
22:20 1018 30.06 847 25.01 -1.7 29 52 -10.3 13.5
22:25 1018 30.06 847 25.01 -1.7 28.9 52 -10.3 13.5
22:30 1018 30.06 847 25.01 -1.9 28.7 54 -9.9 14.2
22:35 1018 30.06 847 25.01 -2 28.4 55 -9.9 14.1
22:40 1018 30.06 847 25.01 -2.2 28.1 54 -10.3 13.5
22:45 1018 30.06 847 25.01 -2.2 28 54 -10.3 13.5
22:50 1018 30.06 847 25.01 -2.2 28 53 -10.6 13
22:55 1018 30.06 847 25.01 -2.3 27.9 53 -10.6 12.8
23:00 1018 30.06 847 25.01 -2.2 28 52 -10.8 12.6
23:05 1018 30.06 847 25.01 -2.2 28 53 -10.5 13.1
23:10 1018 30.06 847 25.01 -2.3 27.8 54 -10.5 13.1
23:15 1018 30.06 847 25.01 -2.4 27.7 54 -10.4 13.3
23:20 1018 30.06 847 25.01 -2.5 27.5 57 -10 14.1
23:25 1018 30.06 847 25.01 -2.7 27.1 57 -10.1 13.8
23:30 1018 30.06 847 25.01 -2.8 27 58 -10 14
23:35 1018 30.06 847 25.01 -2.8 26.9 58 -10 14.1
23:40 1018 30.06 847 25.01 -3 26.6 58 -10.1 13.9
23:45 1018 30.06 847 25.01 -3 26.6 58 -10 13.9
23:50 1018 30.06 847 25.01 -3 26.6 59 -10 14
23:55 1018 30.06 847 25.01 -3 26.7 59 -10 14
24:00 1018 30.06 847 25.01 -3.1 26.4 60 -9.8 14.3